sensor_id;sensor_type;location;lat;lon;timestamp;temperature;humidity
66053;HTU21D;52833;45.112;39.556;2022-07-06T00:02:19;20.11;67.84
66053;HTU21D;52833;45.112;39.556;2022-07-06T00:04:46;20.07;68.00
66053;HTU21D;52833;45.112;39.556;2022-07-06T00:07:12;20.03;68.19
66053;HTU21D;52833;45.112;39.556;2022-07-06T00:09:43;20.00;68.31
66053;HTU21D;52833;45.112;39.556;2022-07-06T00:12:09;19.96;68.40
66053;HTU21D;52833;45.112;39.556;2022-07-06T00:14:36;19.94;68.51
66053;HTU21D;52833;45.112;39.556;2022-07-06T00:17:03;19.90;68.52
66053;HTU21D;52833;45.112;39.556;2022-07-06T00:19:30;19.88;68.55
66053;HTU21D;52833;45.112;39.556;2022-07-06T00:21:57;19.87;68.70
66053;HTU21D;52833;45.112;39.556;2022-07-06T00:24:24;19.86;68.69
66053;HTU21D;52833;45.112;39.556;2022-07-06T00:26:50;19.85;68.62
66053;HTU21D;52833;45.112;39.556;2022-07-06T00:29:17;19.83;68.62
66053;HTU21D;52833;45.112;39.556;2022-07-06T00:31:44;19.82;68.75
66053;HTU21D;52833;45.112;39.556;2022-07-06T00:34:12;19.81;68.83
66053;HTU21D;52833;45.112;39.556;2022-07-06T00:36:41;19.81;68.76
66053;HTU21D;52833;45.112;39.556;2022-07-06T00:39:07;19.79;68.77
66053;HTU21D;52833;45.112;39.556;2022-07-06T00:41:34;19.75;68.76
66053;HTU21D;52833;45.112;39.556;2022-07-06T00:44:07;19.73;68.92
66053;HTU21D;52833;45.112;39.556;2022-07-06T00:46:34;19.72;68.89
66053;HTU21D;52833;45.112;39.556;2022-07-06T00:49:00;19.69;68.90
66053;HTU21D;52833;45.112;39.556;2022-07-06T00:51:32;19.65;68.97
66053;HTU21D;52833;45.112;39.556;2022-07-06T00:54:01;19.62;69.10
66053;HTU21D;52833;45.112;39.556;2022-07-06T00:56:30;19.60;69.20
66053;HTU21D;52833;45.112;39.556;2022-07-06T00:59:01;19.57;69.23
66053;HTU21D;52833;45.112;39.556;2022-07-06T01:01:28;19.56;69.20
66053;HTU21D;52833;45.112;39.556;2022-07-06T01:03:55;19.53;69.21
66053;HTU21D;52833;45.112;39.556;2022-07-06T01:06:22;19.52;69.29
66053;HTU21D;52833;45.112;39.556;2022-07-06T01:08:49;19.51;69.23
66053;HTU21D;52833;45.112;39.556;2022-07-06T01:11:17;19.48;69.23
66053;HTU21D;52833;45.112;39.556;2022-07-06T01:13:47;19.48;69.21
66053;HTU21D;52833;45.112;39.556;2022-07-06T01:16:14;19.47;69.18
66053;HTU21D;52833;45.112;39.556;2022-07-06T01:18:41;19.45;69.13
66053;HTU21D;52833;45.112;39.556;2022-07-06T01:21:11;19.44;69.04
66053;HTU21D;52833;45.112;39.556;2022-07-06T01:23:40;19.43;69.00
66053;HTU21D;52833;45.112;39.556;2022-07-06T01:26:09;19.42;68.97
66053;HTU21D;52833;45.112;39.556;2022-07-06T01:28:36;19.41;68.92
66053;HTU21D;52833;45.112;39.556;2022-07-06T01:31:03;19.40;68.81
66053;HTU21D;52833;45.112;39.556;2022-07-06T01:33:29;19.41;68.69
66053;HTU21D;52833;45.112;39.556;2022-07-06T01:35:56;19.39;68.66
66053;HTU21D;52833;45.112;39.556;2022-07-06T01:38:23;19.38;68.62
66053;HTU21D;52833;45.112;39.556;2022-07-06T01:40:49;19.37;68.59
66053;HTU21D;52833;45.112;39.556;2022-07-06T01:43:16;19.35;68.59
66053;HTU21D;52833;45.112;39.556;2022-07-06T01:45:43;19.32;68.60
66053;HTU21D;52833;45.112;39.556;2022-07-06T01:48:10;19.31;68.56
66053;HTU21D;52833;45.112;39.556;2022-07-06T01:50:37;19.30;68.50
66053;HTU21D;52833;45.112;39.556;2022-07-06T01:53:03;19.28;68.45
66053;HTU21D;52833;45.112;39.556;2022-07-06T01:55:30;19.28;68.42
66053;HTU21D;52833;45.112;39.556;2022-07-06T01:57:57;19.29;68.39
66053;HTU21D;52833;45.112;39.556;2022-07-06T02:00:24;19.30;68.30
66053;HTU21D;52833;45.112;39.556;2022-07-06T02:02:50;19.32;68.23
66053;HTU21D;52833;45.112;39.556;2022-07-06T02:05:17;19.33;68.13
66053;HTU21D;52833;45.112;39.556;2022-07-06T02:07:44;19.39;68.10
66053;HTU21D;52833;45.112;39.556;2022-07-06T02:10:12;19.50;68.07
66053;HTU21D;52833;45.112;39.556;2022-07-06T02:12:38;19.61;67.89
66053;HTU21D;52833;45.112;39.556;2022-07-06T02:15:05;19.74;67.63
66053;HTU21D;52833;45.112;39.556;2022-07-06T02:17:33;19.90;67.35
66053;HTU21D;52833;45.112;39.556;2022-07-06T02:20:00;20.04;67.05
66053;HTU21D;52833;45.112;39.556;2022-07-06T02:22:28;20.20;66.82
66053;HTU21D;52833;45.112;39.556;2022-07-06T02:24:54;20.43;66.52
66053;HTU21D;52833;45.112;39.556;2022-07-06T02:27:21;20.68;66.07
66053;HTU21D;52833;45.112;39.556;2022-07-06T02:29:48;20.92;65.59
66053;HTU21D;52833;45.112;39.556;2022-07-06T02:32:16;21.19;65.14
66053;HTU21D;52833;45.112;39.556;2022-07-06T02:34:43;21.45;64.61
66053;HTU21D;52833;45.112;39.556;2022-07-06T02:37:10;21.68;64.05
66053;HTU21D;52833;45.112;39.556;2022-07-06T02:39:37;21.91;63.59
66053;HTU21D;52833;45.112;39.556;2022-07-06T02:42:04;22.18;63.08
66053;HTU21D;52833;45.112;39.556;2022-07-06T02:44:31;22.42;62.52
66053;HTU21D;52833;45.112;39.556;2022-07-06T02:46:58;22.63;62.04
66053;HTU21D;52833;45.112;39.556;2022-07-06T02:49:25;22.87;61.66
66053;HTU21D;52833;45.112;39.556;2022-07-06T02:51:51;23.16;61.09
66053;HTU21D;52833;45.112;39.556;2022-07-06T02:54:18;23.46;60.28
66053;HTU21D;52833;45.112;39.556;2022-07-06T02:56:45;23.72;59.54
66053;HTU21D;52833;45.112;39.556;2022-07-06T02:59:17;24.04;58.97
66053;HTU21D;52833;45.112;39.556;2022-07-06T03:01:43;24.34;58.22
66053;HTU21D;52833;45.112;39.556;2022-07-06T03:04:10;24.64;57.24
66053;HTU21D;52833;45.112;39.556;2022-07-06T03:06:37;24.95;56.42
66053;HTU21D;52833;45.112;39.556;2022-07-06T03:09:04;25.28;55.56
66053;HTU21D;52833;45.112;39.556;2022-07-06T03:11:30;25.61;54.68
66053;HTU21D;52833;45.112;39.556;2022-07-06T03:13:57;25.90;53.79
66053;HTU21D;52833;45.112;39.556;2022-07-06T03:16:24;26.19;53.06
66053;HTU21D;52833;45.112;39.556;2022-07-06T03:18:51;26.48;52.41
66053;HTU21D;52833;45.112;39.556;2022-07-06T03:21:17;26.78;51.72
66053;HTU21D;52833;45.112;39.556;2022-07-06T03:23:44;27.05;50.92
66053;HTU21D;52833;45.112;39.556;2022-07-06T03:26:11;27.31;50.38
66053;HTU21D;52833;45.112;39.556;2022-07-06T03:28:37;27.58;49.82
66053;HTU21D;52833;45.112;39.556;2022-07-06T03:31:04;27.85;49.18
66053;HTU21D;52833;45.112;39.556;2022-07-06T03:33:31;28.11;48.79
66053;HTU21D;52833;45.112;39.556;2022-07-06T03:35:59;28.31;48.63
66053;HTU21D;52833;45.112;39.556;2022-07-06T03:38:26;28.50;48.34
66053;HTU21D;52833;45.112;39.556;2022-07-06T03:40:53;28.65;48.02
66053;HTU21D;52833;45.112;39.556;2022-07-06T03:43:19;28.71;47.73
66053;HTU21D;52833;45.112;39.556;2022-07-06T03:45:46;28.70;47.77
66053;HTU21D;52833;45.112;39.556;2022-07-06T03:48:13;28.64;47.70
66053;HTU21D;52833;45.112;39.556;2022-07-06T03:50:42;28.62;47.77
66053;HTU21D;52833;45.112;39.556;2022-07-06T03:53:09;28.59;47.97
66053;HTU21D;52833;45.112;39.556;2022-07-06T03:55:37;28.56;48.11
66053;HTU21D;52833;45.112;39.556;2022-07-06T03:58:07;28.53;48.47
66053;HTU21D;52833;45.112;39.556;2022-07-06T04:00:37;28.55;48.42
66053;HTU21D;52833;45.112;39.556;2022-07-06T04:03:07;28.56;48.42
66053;HTU21D;52833;45.112;39.556;2022-07-06T04:05:40;28.56;48.18
66053;HTU21D;52833;45.112;39.556;2022-07-06T04:08:08;28.48;48.12
66053;HTU21D;52833;45.112;39.556;2022-07-06T04:10:41;28.44;48.10
66053;HTU21D;52833;45.112;39.556;2022-07-06T04:13:08;28.41;48.27
66053;HTU21D;52833;45.112;39.556;2022-07-06T04:15:34;28.42;48.29
66053;HTU21D;52833;45.112;39.556;2022-07-06T04:18:02;28.42;48.08
66053;HTU21D;52833;45.112;39.556;2022-07-06T04:20:46;28.41;48.19
66053;HTU21D;52833;45.112;39.556;2022-07-06T04:23:13;28.42;48.10
66053;HTU21D;52833;45.112;39.556;2022-07-06T04:25:39;28.41;48.05
66053;HTU21D;52833;45.112;39.556;2022-07-06T04:28:07;28.43;47.97
66053;HTU21D;52833;45.112;39.556;2022-07-06T04:30:35;28.45;47.92
66053;HTU21D;52833;45.112;39.556;2022-07-06T04:33:03;28.46;47.50
66053;HTU21D;52833;45.112;39.556;2022-07-06T04:35:33;28.41;47.18
66053;HTU21D;52833;45.112;39.556;2022-07-06T04:37:59;28.39;47.18
66053;HTU21D;52833;45.112;39.556;2022-07-06T04:40:27;28.40;47.15
66053;HTU21D;52833;45.112;39.556;2022-07-06T04:42:59;28.39;46.93
66053;HTU21D;52833;45.112;39.556;2022-07-06T04:45:26;28.39;46.84
66053;HTU21D;52833;45.112;39.556;2022-07-06T04:47:54;28.39;46.89
66053;HTU21D;52833;45.112;39.556;2022-07-06T04:50:20;28.41;46.67
66053;HTU21D;52833;45.112;39.556;2022-07-06T04:52:48;28.42;46.86
66053;HTU21D;52833;45.112;39.556;2022-07-06T04:55:15;28.46;46.86
66053;HTU21D;52833;45.112;39.556;2022-07-06T04:57:42;28.52;47.01
66053;HTU21D;52833;45.112;39.556;2022-07-06T05:00:13;28.61;46.86
66053;HTU21D;52833;45.112;39.556;2022-07-06T05:02:41;28.69;46.96
66053;HTU21D;52833;45.112;39.556;2022-07-06T05:05:08;28.82;46.80
66053;HTU21D;52833;45.112;39.556;2022-07-06T05:07:37;28.97;46.74
66053;HTU21D;52833;45.112;39.556;2022-07-06T05:10:11;29.08;46.43
66053;HTU21D;52833;45.112;39.556;2022-07-06T05:12:41;29.16;46.28
66053;HTU21D;52833;45.112;39.556;2022-07-06T05:15:09;29.17;45.96
66053;HTU21D;52833;45.112;39.556;2022-07-06T05:17:36;29.18;46.11
66053;HTU21D;52833;45.112;39.556;2022-07-06T05:20:05;29.29;46.00
66053;HTU21D;52833;45.112;39.556;2022-07-06T05:22:35;29.43;46.01
66053;HTU21D;52833;45.112;39.556;2022-07-06T05:25:03;29.60;45.92
66053;HTU21D;52833;45.112;39.556;2022-07-06T05:27:30;29.73;45.72
66053;HTU21D;52833;45.112;39.556;2022-07-06T05:29:57;29.83;45.27
66053;HTU21D;52833;45.112;39.556;2022-07-06T05:32:25;29.93;45.28
66053;HTU21D;52833;45.112;39.556;2022-07-06T05:34:52;30.05;45.09
66053;HTU21D;52833;45.112;39.556;2022-07-06T05:37:20;30.18;45.00
66053;HTU21D;52833;45.112;39.556;2022-07-06T05:39:47;30.32;44.83
66053;HTU21D;52833;45.112;39.556;2022-07-06T05:42:16;30.50;44.61
66053;HTU21D;52833;45.112;39.556;2022-07-06T05:44:45;30.63;43.96
66053;HTU21D;52833;45.112;39.556;2022-07-06T05:47:12;30.76;43.71
66053;HTU21D;52833;45.112;39.556;2022-07-06T05:49:58;30.89;43.55
66053;HTU21D;52833;45.112;39.556;2022-07-06T05:52:59;31.05;43.72
66053;HTU21D;52833;45.112;39.556;2022-07-06T05:55:29;31.19;43.39
66053;HTU21D;52833;45.112;39.556;2022-07-06T05:57:58;31.25;43.16
66053;HTU21D;52833;45.112;39.556;2022-07-06T06:00:27;31.37;43.32
66053;HTU21D;52833;45.112;39.556;2022-07-06T06:02:59;31.52;43.33
66053;HTU21D;52833;45.112;39.556;2022-07-06T06:05:26;31.61;42.87
66053;HTU21D;52833;45.112;39.556;2022-07-06T06:07:57;31.69;42.73
66053;HTU21D;52833;45.112;39.556;2022-07-06T06:10:26;31.78;42.35
66053;HTU21D;52833;45.112;39.556;2022-07-06T06:12:57;31.82;41.91
66053;HTU21D;52833;45.112;39.556;2022-07-06T06:15:24;31.94;41.55
66053;HTU21D;52833;45.112;39.556;2022-07-06T06:17:50;32.08;41.29
66053;HTU21D;52833;45.112;39.556;2022-07-06T06:20:16;32.22;41.28
66053;HTU21D;52833;45.112;39.556;2022-07-06T06:22:50;32.38;40.92
66053;HTU21D;52833;45.112;39.556;2022-07-06T06:25:19;32.50;40.64
66053;HTU21D;52833;45.112;39.556;2022-07-06T06:27:47;32.62;40.04
66053;HTU21D;52833;45.112;39.556;2022-07-06T06:30:14;32.78;40.07
66053;HTU21D;52833;45.112;39.556;2022-07-06T06:32:41;32.94;39.41
66053;HTU21D;52833;45.112;39.556;2022-07-06T06:35:08;33.01;38.88
66053;HTU21D;52833;45.112;39.556;2022-07-06T06:37:35;33.07;38.81
66053;HTU21D;52833;45.112;39.556;2022-07-06T06:40:03;33.17;38.52
66053;HTU21D;52833;45.112;39.556;2022-07-06T06:42:29;33.30;38.29
66053;HTU21D;52833;45.112;39.556;2022-07-06T06:44:58;33.37;37.72
66053;HTU21D;52833;45.112;39.556;2022-07-06T06:47:24;33.45;37.24
66053;HTU21D;52833;45.112;39.556;2022-07-06T06:49:50;33.52;37.35
66053;HTU21D;52833;45.112;39.556;2022-07-06T06:52:17;33.64;36.78
66053;HTU21D;52833;45.112;39.556;2022-07-06T06:54:43;33.75;36.30
66053;HTU21D;52833;45.112;39.556;2022-07-06T06:57:10;33.88;35.90
66053;HTU21D;52833;45.112;39.556;2022-07-06T06:59:36;33.96;35.29
66053;HTU21D;52833;45.112;39.556;2022-07-06T07:02:02;34.04;34.93
66053;HTU21D;52833;45.112;39.556;2022-07-06T07:04:29;34.05;35.02
66053;HTU21D;52833;45.112;39.556;2022-07-06T07:06:56;34.11;34.79
66053;HTU21D;52833;45.112;39.556;2022-07-06T07:09:23;34.19;34.94
66053;HTU21D;52833;45.112;39.556;2022-07-06T07:11:49;34.29;34.48
66053;HTU21D;52833;45.112;39.556;2022-07-06T07:14:16;34.33;34.29
66053;HTU21D;52833;45.112;39.556;2022-07-06T07:16:42;34.44;33.62
66053;HTU21D;52833;45.112;39.556;2022-07-06T07:19:09;34.52;33.74
66053;HTU21D;52833;45.112;39.556;2022-07-06T07:21:35;34.63;33.65
66053;HTU21D;52833;45.112;39.556;2022-07-06T07:24:02;34.75;33.30
66053;HTU21D;52833;45.112;39.556;2022-07-06T07:26:28;34.85;33.51
66053;HTU21D;52833;45.112;39.556;2022-07-06T07:28:55;34.86;32.57
66053;HTU21D;52833;45.112;39.556;2022-07-06T07:31:21;34.80;32.41
66053;HTU21D;52833;45.112;39.556;2022-07-06T07:33:48;34.77;32.89
66053;HTU21D;52833;45.112;39.556;2022-07-06T07:36:14;34.81;32.98
66053;HTU21D;52833;45.112;39.556;2022-07-06T07:38:41;34.84;32.57
66053;HTU21D;52833;45.112;39.556;2022-07-06T07:41:07;34.82;32.52
66053;HTU21D;52833;45.112;39.556;2022-07-06T07:43:40;34.79;32.48
66053;HTU21D;52833;45.112;39.556;2022-07-06T07:46:07;34.79;32.04
66053;HTU21D;52833;45.112;39.556;2022-07-06T07:48:34;34.81;31.72
66053;HTU21D;52833;45.112;39.556;2022-07-06T07:51:01;34.90;31.43
66053;HTU21D;52833;45.112;39.556;2022-07-06T07:53:27;35.04;31.48
66053;HTU21D;52833;45.112;39.556;2022-07-06T07:55:54;35.16;31.35
66053;HTU21D;52833;45.112;39.556;2022-07-06T07:58:21;35.27;31.54
66053;HTU21D;52833;45.112;39.556;2022-07-06T08:00:48;35.31;31.25
66053;HTU21D;52833;45.112;39.556;2022-07-06T08:03:14;35.28;31.67
66053;HTU21D;52833;45.112;39.556;2022-07-06T08:05:41;35.22;31.54
66053;HTU21D;52833;45.112;39.556;2022-07-06T08:08:08;35.21;31.54
66053;HTU21D;52833;45.112;39.556;2022-07-06T08:10:35;35.26;31.23
66053;HTU21D;52833;45.112;39.556;2022-07-06T08:13:01;35.26;30.50
66053;HTU21D;52833;45.112;39.556;2022-07-06T08:15:28;35.20;30.28
66053;HTU21D;52833;45.112;39.556;2022-07-06T08:17:55;35.19;30.35
66053;HTU21D;52833;45.112;39.556;2022-07-06T08:20:22;35.16;30.04
66053;HTU21D;52833;45.112;39.556;2022-07-06T08:22:48;35.09;29.34
66053;HTU21D;52833;45.112;39.556;2022-07-06T08:25:15;35.00;28.85
66053;HTU21D;52833;45.112;39.556;2022-07-06T08:27:41;34.94;29.10
66053;HTU21D;52833;45.112;39.556;2022-07-06T08:30:08;34.92;29.19
66053;HTU21D;52833;45.112;39.556;2022-07-06T08:32:40;34.90;29.01
66053;HTU21D;52833;45.112;39.556;2022-07-06T08:35:08;34.89;29.22
66053;HTU21D;52833;45.112;39.556;2022-07-06T08:37:35;34.89;28.90
66053;HTU21D;52833;45.112;39.556;2022-07-06T08:40:01;34.86;28.78
66053;HTU21D;52833;45.112;39.556;2022-07-06T08:42:34;34.84;28.65
66053;HTU21D;52833;45.112;39.556;2022-07-06T08:45:04;34.81;28.57
66053;HTU21D;52833;45.112;39.556;2022-07-06T08:47:31;34.80;28.74
66053;HTU21D;52833;45.112;39.556;2022-07-06T08:49:58;34.85;28.66
66053;HTU21D;52833;45.112;39.556;2022-07-06T08:52:25;34.92;28.11
66053;HTU21D;52833;45.112;39.556;2022-07-06T08:54:52;34.95;28.03
66053;HTU21D;52833;45.112;39.556;2022-07-06T08:57:18;34.94;27.95
66053;HTU21D;52833;45.112;39.556;2022-07-06T08:59:45;34.96;27.51
66053;HTU21D;52833;45.112;39.556;2022-07-06T09:02:13;34.97;27.36
66053;HTU21D;52833;45.112;39.556;2022-07-06T09:04:42;35.00;27.30
66053;HTU21D;52833;45.112;39.556;2022-07-06T09:07:10;35.06;27.34
66053;HTU21D;52833;45.112;39.556;2022-07-06T09:09:37;35.10;27.19
66053;HTU21D;52833;45.112;39.556;2022-07-06T09:12:11;35.09;26.94
66053;HTU21D;52833;45.112;39.556;2022-07-06T09:14:39;35.14;27.05
66053;HTU21D;52833;45.112;39.556;2022-07-06T09:17:06;35.24;27.13
66053;HTU21D;52833;45.112;39.556;2022-07-06T09:19:34;35.35;27.29
66053;HTU21D;52833;45.112;39.556;2022-07-06T09:22:02;35.49;26.68
66053;HTU21D;52833;45.112;39.556;2022-07-06T09:24:30;35.55;26.33
66053;HTU21D;52833;45.112;39.556;2022-07-06T09:26:59;35.51;26.42
66053;HTU21D;52833;45.112;39.556;2022-07-06T09:29:28;35.53;25.92
66053;HTU21D;52833;45.112;39.556;2022-07-06T09:31:59;35.60;25.25
66053;HTU21D;52833;45.112;39.556;2022-07-06T09:34:53;35.59;25.43
66053;HTU21D;52833;45.112;39.556;2022-07-06T09:37:22;35.58;25.65
66053;HTU21D;52833;45.112;39.556;2022-07-06T09:39:50;35.59;25.95
66053;HTU21D;52833;45.112;39.556;2022-07-06T09:42:24;35.66;25.85
66053;HTU21D;52833;45.112;39.556;2022-07-06T09:44:52;35.83;25.65
66053;HTU21D;52833;45.112;39.556;2022-07-06T09:47:20;35.97;25.45
66053;HTU21D;52833;45.112;39.556;2022-07-06T09:49:47;35.98;25.14
66053;HTU21D;52833;45.112;39.556;2022-07-06T09:52:17;35.90;24.84
66053;HTU21D;52833;45.112;39.556;2022-07-06T09:54:48;35.82;24.78
66053;HTU21D;52833;45.112;39.556;2022-07-06T09:57:15;35.74;24.82
66053;HTU21D;52833;45.112;39.556;2022-07-06T09:59:51;35.68;24.94
66053;HTU21D;52833;45.112;39.556;2022-07-06T10:02:20;35.64;25.03
66053;HTU21D;52833;45.112;39.556;2022-07-06T10:04:49;35.55;24.83
66053;HTU21D;52833;45.112;39.556;2022-07-06T10:07:20;35.51;25.23
66053;HTU21D;52833;45.112;39.556;2022-07-06T10:09:50;35.51;25.35
66053;HTU21D;52833;45.112;39.556;2022-07-06T10:12:18;35.48;25.33
66053;HTU21D;52833;45.112;39.556;2022-07-06T10:14:47;35.48;25.33
66053;HTU21D;52833;45.112;39.556;2022-07-06T10:17:14;35.48;25.53
66053;HTU21D;52833;45.112;39.556;2022-07-06T10:19:41;35.47;25.57
66053;HTU21D;52833;45.112;39.556;2022-07-06T10:22:08;35.43;25.23
66053;HTU21D;52833;45.112;39.556;2022-07-06T10:24:36;35.40;25.37
66053;HTU21D;52833;45.112;39.556;2022-07-06T10:27:10;35.44;25.25
66053;HTU21D;52833;45.112;39.556;2022-07-06T10:29:40;35.48;24.94
66053;HTU21D;52833;45.112;39.556;2022-07-06T10:32:08;35.50;24.99
66053;HTU21D;52833;45.112;39.556;2022-07-06T10:34:36;35.53;24.46
66053;HTU21D;52833;45.112;39.556;2022-07-06T10:37:03;35.50;24.60
66053;HTU21D;52833;45.112;39.556;2022-07-06T10:39:37;35.41;24.26
66053;HTU21D;52833;45.112;39.556;2022-07-06T10:42:42;35.31;24.54
66053;HTU21D;52833;45.112;39.556;2022-07-06T10:45:12;35.21;24.67
66053;HTU21D;52833;45.112;39.556;2022-07-06T10:47:42;35.15;25.24
66053;HTU21D;52833;45.112;39.556;2022-07-06T10:50:09;35.18;25.21
66053;HTU21D;52833;45.112;39.556;2022-07-06T10:52:57;35.19;25.52
66053;HTU21D;52833;45.112;39.556;2022-07-06T10:55:36;35.18;25.22
66053;HTU21D;52833;45.112;39.556;2022-07-06T10:58:04;35.14;25.09
66053;HTU21D;52833;45.112;39.556;2022-07-06T11:00:54;35.11;25.59
66053;HTU21D;52833;45.112;39.556;2022-07-06T11:03:42;35.13;25.53
66053;HTU21D;52833;45.112;39.556;2022-07-06T11:06:20;35.12;25.76
66053;HTU21D;52833;45.112;39.556;2022-07-06T11:08:58;35.12;25.59
66053;HTU21D;52833;45.112;39.556;2022-07-06T11:14:09;35.06;25.40
66053;HTU21D;52833;45.112;39.556;2022-07-06T11:16:59;35.01;25.62
66053;HTU21D;52833;45.112;39.556;2022-07-06T11:19:30;34.99;25.68
66053;HTU21D;52833;45.112;39.556;2022-07-06T11:22:07;35.00;25.46
66053;HTU21D;52833;45.112;39.556;2022-07-06T11:24:36;35.04;25.21
66053;HTU21D;52833;45.112;39.556;2022-07-06T11:27:04;35.12;24.81
66053;HTU21D;52833;45.112;39.556;2022-07-06T11:29:33;35.20;24.54
66053;HTU21D;52833;45.112;39.556;2022-07-06T11:32:06;35.33;24.45
66053;HTU21D;52833;45.112;39.556;2022-07-06T11:34:42;35.40;24.30
66053;HTU21D;52833;45.112;39.556;2022-07-06T11:37:14;35.44;24.36
66053;HTU21D;52833;45.112;39.556;2022-07-06T11:39:43;35.52;24.65
66053;HTU21D;52833;45.112;39.556;2022-07-06T11:42:12;35.59;24.79
66053;HTU21D;52833;45.112;39.556;2022-07-06T11:44:41;35.65;24.65
66053;HTU21D;52833;45.112;39.556;2022-07-06T11:47:10;35.60;24.63
66053;HTU21D;52833;45.112;39.556;2022-07-06T11:49:39;35.57;25.05
66053;HTU21D;52833;45.112;39.556;2022-07-06T11:52:10;35.56;24.85
66053;HTU21D;52833;45.112;39.556;2022-07-06T11:54:37;35.49;25.17
66053;HTU21D;52833;45.112;39.556;2022-07-06T11:57:08;35.42;24.79
66053;HTU21D;52833;45.112;39.556;2022-07-06T11:59:37;35.36;24.89
66053;HTU21D;52833;45.112;39.556;2022-07-06T12:04:34;35.12;24.20
66053;HTU21D;52833;45.112;39.556;2022-07-06T12:07:07;35.01;24.16
66053;HTU21D;52833;45.112;39.556;2022-07-06T12:09:37;34.95;24.58
66053;HTU21D;52833;45.112;39.556;2022-07-06T12:12:06;34.91;24.44
66053;HTU21D;52833;45.112;39.556;2022-07-06T12:14:35;34.89;24.76
66053;HTU21D;52833;45.112;39.556;2022-07-06T12:17:06;34.88;24.74
66053;HTU21D;52833;45.112;39.556;2022-07-06T12:19:34;34.84;24.91
66053;HTU21D;52833;45.112;39.556;2022-07-06T12:22:01;34.83;25.07
66053;HTU21D;52833;45.112;39.556;2022-07-06T12:24:30;34.81;24.89
66053;HTU21D;52833;45.112;39.556;2022-07-06T12:26:58;34.79;24.87
66053;HTU21D;52833;45.112;39.556;2022-07-06T12:29:25;34.76;25.18
66053;HTU21D;52833;45.112;39.556;2022-07-06T12:31:53;34.74;25.53
66053;HTU21D;52833;45.112;39.556;2022-07-06T12:34:25;34.75;25.50
66053;HTU21D;52833;45.112;39.556;2022-07-06T12:36:57;34.73;25.58
66053;HTU21D;52833;45.112;39.556;2022-07-06T12:39:27;34.74;25.84
66053;HTU21D;52833;45.112;39.556;2022-07-06T12:42:04;34.75;25.91
66053;HTU21D;52833;45.112;39.556;2022-07-06T12:44:32;34.76;25.95
66053;HTU21D;52833;45.112;39.556;2022-07-06T12:47:06;34.76;26.08
66053;HTU21D;52833;45.112;39.556;2022-07-06T12:49:34;34.75;26.17
66053;HTU21D;52833;45.112;39.556;2022-07-06T12:54:35;34.64;26.53
66053;HTU21D;52833;45.112;39.556;2022-07-06T12:57:15;34.61;26.63
66053;HTU21D;52833;45.112;39.556;2022-07-06T13:00:02;34.55;26.83
66053;HTU21D;52833;45.112;39.556;2022-07-06T13:02:35;34.52;26.99
66053;HTU21D;52833;45.112;39.556;2022-07-06T13:05:07;34.47;27.04
66053;HTU21D;52833;45.112;39.556;2022-07-06T13:07:36;34.39;27.15
66053;HTU21D;52833;45.112;39.556;2022-07-06T13:10:08;34.31;27.34
66053;HTU21D;52833;45.112;39.556;2022-07-06T13:12:36;34.26;27.42
66053;HTU21D;52833;45.112;39.556;2022-07-06T13:15:04;34.21;27.55
66053;HTU21D;52833;45.112;39.556;2022-07-06T13:17:31;34.18;27.67
66053;HTU21D;52833;45.112;39.556;2022-07-06T13:19:57;34.14;27.64
66053;HTU21D;52833;45.112;39.556;2022-07-06T13:22:24;34.08;27.81
66053;HTU21D;52833;45.112;39.556;2022-07-06T13:24:50;34.03;27.95
66053;HTU21D;52833;45.112;39.556;2022-07-06T13:27:17;33.97;27.91
66053;HTU21D;52833;45.112;39.556;2022-07-06T13:29:44;33.91;27.84
66053;HTU21D;52833;45.112;39.556;2022-07-06T13:32:10;33.85;28.04
66053;HTU21D;52833;45.112;39.556;2022-07-06T13:34:37;33.78;27.97
66053;HTU21D;52833;45.112;39.556;2022-07-06T13:37:05;33.70;28.15
66053;HTU21D;52833;45.112;39.556;2022-07-06T13:39:32;33.65;28.19
66053;HTU21D;52833;45.112;39.556;2022-07-06T13:41:59;33.59;28.17
66053;HTU21D;52833;45.112;39.556;2022-07-06T13:44:26;33.51;28.13
66053;HTU21D;52833;45.112;39.556;2022-07-06T13:46:53;33.44;28.13
66053;HTU21D;52833;45.112;39.556;2022-07-06T13:49:20;33.37;28.15
66053;HTU21D;52833;45.112;39.556;2022-07-06T13:51:47;33.28;28.11
66053;HTU21D;52833;45.112;39.556;2022-07-06T13:54:13;33.20;28.33
66053;HTU21D;52833;45.112;39.556;2022-07-06T13:56:40;33.13;28.55
66053;HTU21D;52833;45.112;39.556;2022-07-06T13:59:07;33.11;28.68
66053;HTU21D;52833;45.112;39.556;2022-07-06T14:01:34;33.05;28.71
66053;HTU21D;52833;45.112;39.556;2022-07-06T14:04:01;33.01;28.91
66053;HTU21D;52833;45.112;39.556;2022-07-06T14:06:28;32.97;28.93
66053;HTU21D;52833;45.112;39.556;2022-07-06T14:08:56;32.90;29.09
66053;HTU21D;52833;45.112;39.556;2022-07-06T14:11:23;32.85;29.28
66053;HTU21D;52833;45.112;39.556;2022-07-06T14:13:49;32.81;29.57
66053;HTU21D;52833;45.112;39.556;2022-07-06T14:16:16;32.79;29.51
66053;HTU21D;52833;45.112;39.556;2022-07-06T14:18:42;32.76;29.46
66053;HTU21D;52833;45.112;39.556;2022-07-06T14:21:09;32.71;29.67
66053;HTU21D;52833;45.112;39.556;2022-07-06T14:23:36;32.68;29.65
66053;HTU21D;52833;45.112;39.556;2022-07-06T14:26:03;32.64;29.73
66053;HTU21D;52833;45.112;39.556;2022-07-06T14:28:29;32.58;29.96
66053;HTU21D;52833;45.112;39.556;2022-07-06T14:30:55;32.56;30.18
66053;HTU21D;52833;45.112;39.556;2022-07-06T14:33:22;32.53;30.16
66053;HTU21D;52833;45.112;39.556;2022-07-06T14:35:50;32.47;30.17
66053;HTU21D;52833;45.112;39.556;2022-07-06T14:38:20;32.43;30.26
66053;HTU21D;52833;45.112;39.556;2022-07-06T14:40:47;32.38;30.32
66053;HTU21D;52833;45.112;39.556;2022-07-06T14:43:17;32.32;30.35
66053;HTU21D;52833;45.112;39.556;2022-07-06T14:45:45;32.29;30.45
66053;HTU21D;52833;45.112;39.556;2022-07-06T14:48:13;32.24;30.54
66053;HTU21D;52833;45.112;39.556;2022-07-06T14:50:40;32.20;30.74
66053;HTU21D;52833;45.112;39.556;2022-07-06T14:53:06;32.16;30.78
66053;HTU21D;52833;45.112;39.556;2022-07-06T14:55:34;32.13;31.03
66053;HTU21D;52833;45.112;39.556;2022-07-06T14:58:00;32.10;31.03
66053;HTU21D;52833;45.112;39.556;2022-07-06T15:00:28;32.04;31.13
66053;HTU21D;52833;45.112;39.556;2022-07-06T15:02:55;31.99;31.25
66053;HTU21D;52833;45.112;39.556;2022-07-06T15:05:22;31.93;31.35
66053;HTU21D;52833;45.112;39.556;2022-07-06T15:07:49;31.89;31.45
66053;HTU21D;52833;45.112;39.556;2022-07-06T15:10:15;31.85;31.58
66053;HTU21D;52833;45.112;39.556;2022-07-06T15:12:42;31.79;31.63
66053;HTU21D;52833;45.112;39.556;2022-07-06T15:15:09;31.74;31.73
66053;HTU21D;52833;45.112;39.556;2022-07-06T15:17:36;31.69;31.78
66053;HTU21D;52833;45.112;39.556;2022-07-06T15:20:02;31.64;31.89